Radar

Controlla il traffico aereo

Map and data supplied by Flightradar24.com

[Source: ADDS]
METAR
LIPY 220950Z 31013KT 4000 -RA BR FEW007 SCT010 BKN015 03/03 Q1007 =
LIPY 220500Z 2206/2306 34010KT 6000 BKN020 TEMPO 2206/2220 4000 RA BECMG 2220/2222 28008KT
TAF
LIPY 220500Z 2206/2306 34010KT 6000 BKN020 TEMPO 2206/2220 4000 RA BECMG 2220/2222 28008KT =
SR / SS: 06:33 / 16:05 UTC (Effemeridi 2019-01-22)

Abbiamo 331 visitatori e nessun utente online

 Quelli che il drone

   Strada della Marina, 1A

     60019 Senigallia AN, Italia

  Telefono: (+39) 338/6041090